Time;durP1;ratioP1;P1;durP2;ratioP2;P2;SDS_P1;SDS_P2;PMS_P1;PMS_P2;Temp;Humidity;BMP_temperature;BMP_pressure;BME280_temperature;BME280_humidity;BME280_pressure;Samples;Min_cycle;Max_cycle;Signal;HPM_P1;HPM_P2
2021/12/05 00:18:20;;;;;;;1.20;1.20;;;;;;;7.87;100.00;98932.03;5071570;28;20198;-57
2021/12/05 00:23:39;;;;;;;0.53;0.43;;;;;;;7.90;100.00;98926.81;5070988;28;20196;-56
2021/12/05 00:26:10;;;;;;;0.77;0.60;;;;;;;8.00;100.00;98936.00;5071160;28;20196;-57
2021/12/05 00:28:56;;;;;;;0.30;0.30;;;;;;;8.01;100.00;98930.75;5071230;28;20265;-56
2021/12/05 00:34:24;;;;;;;0.50;0.50;;;;;;;7.94;100.00;98931.81;5070812;28;20235;-57
2021/12/05 00:49:03;;;;;;;0.73;0.73;;;;;;;7.87;100.00;98927.72;5060485;28;20199;-59
2021/12/05 01:03:08;;;;;;;1.60;1.07;;;;;;;7.93;100.00;98911.19;5059310;28;20227;-59
2021/12/05 01:08:38;;;;;;;0.13;0.13;;;;;;;7.83;100.00;98920.94;5070588;28;20203;-58
2021/12/05 01:11:26;;;;;;;0.53;0.53;;;;;;;7.87;100.00;98919.13;5070406;28;20448;-59
2021/12/05 01:14:08;;;;;;;0.47;0.47;;;;;;;7.83;100.00;98915.75;5070502;28;20200;-59
2021/12/05 01:16:36;;;;;;;0.40;0.40;;;;;;;7.85;100.00;98915.72;5070483;28;20203;-55
2021/12/05 01:19:07;;;;;;;0.93;0.60;;;;;;;7.81;100.00;98912.38;5070246;28;20196;-56
2021/12/05 01:21:35;;;;;;;1.47;0.73;;;;;;;7.81;100.00;98933.03;5070501;28;20700;-56
2021/12/05 01:24:08;;;;;;;0.23;0.23;;;;;;;7.78;100.00;98920.22;5070440;28;20615;-58
2021/12/05 01:26:39;;;;;;;0.90;0.50;;;;;;;7.75;100.00;98911.72;5070533;28;20250;-59
2021/12/05 01:29:26;;;;;;;0.80;0.80;;;;;;;7.78;100.00;98911.63;5070337;28;20196;-59
2021/12/05 01:32:03;;;;;;;0.60;0.60;;;;;;;7.74;100.00;98918.59;5070314;28;20196;-58
2021/12/05 01:34:42;;;;;;;3.00;0.93;;;;;;;7.74;100.00;98921.19;5069756;28;20278;-58
2021/12/05 01:37:20;;;;;;;0.20;0.20;;;;;;;7.72;100.00;98915.22;5070165;28;20200;-59
2021/12/05 02:16:01;;;;;;;0.00;0.00;;;;;;;7.35;100.00;98886.06;5073865;28;20206;-57
2021/12/05 02:35:14;;;;;;;0.63;0.63;;;;;;;7.44;100.00;98886.72;5039478;28;20239;-57
2021/12/05 02:40:55;;;;;;;1.17;1.10;;;;;;;7.17;100.00;98846.97;5107949;27;20566;-56
2021/12/05 02:43:27;;;;;;;0.40;0.40;;;;;;;7.10;100.00;98840.28;5107999;28;20194;-57
2021/12/05 02:45:58;;;;;;;0.53;0.53;;;;;;;7.29;100.00;98862.13;5107908;28;20195;-57
2021/12/05 02:48:28;;;;;;;0.10;0.10;;;;;;;7.25;100.00;98860.50;5107879;28;20195;-57
2021/12/05 02:50:55;;;;;;;0.50;0.50;;;;;;;7.15;100.00;98859.03;5107823;28;20760;-56
2021/12/05 02:53:34;;;;;;;0.67;0.67;;;;;;;7.14;100.00;98861.66;5107873;28;20195;-57
2021/12/05 02:56:05;;;;;;;0.47;0.47;;;;;;;7.18;100.00;98856.41;5107913;28;20194;-59
2021/12/05 02:58:39;;;;;;;0.70;0.70;;;;;;;7.16;100.00;98853.00;5107637;28;20198;-58
2021/12/05 03:01:14;;;;;;;1.13;1.03;;;;;;;7.20;100.00;98846.03;5107565;28;20289;-59
2021/12/05 03:03:41;;;;;;;0.60;0.60;;;;;;;7.11;100.00;98851.44;5107557;28;20190;-58
2021/12/05 03:06:16;;;;;;;0.93;0.93;;;;;;;7.20;100.00;98841.72;5107687;28;20271;-58
2021/12/05 03:08:43;;;;;;;0.63;0.63;;;;;;;7.25;100.00;98857.06;5107619;28;20217;-56
2021/12/05 03:11:12;;;;;;;2.00;1.90;;;;;;;7.22;100.00;98864.91;5107318;28;20202;-57
2021/12/05 03:13:41;;;;;;;0.53;0.53;;;;;;;7.20;100.00;98867.53;5107308;28;20201;-57
2021/12/05 03:16:10;;;;;;;1.07;0.93;;;;;;;7.26;100.00;98867.34;5107654;28;20772;-57
2021/12/05 03:18:38;;;;;;;1.07;1.07;;;;;;;7.25;100.00;98868.25;5107172;28;20197;-56
2021/12/05 03:21:07;;;;;;;1.73;1.63;;;;;;;7.21;100.00;98869.22;5107633;28;20722;-55
2021/12/05 03:23:35;;;;;;;2.43;0.90;;;;;;;7.27;100.00;98850.13;5107468;28;20231;-58
2021/12/05 03:26:03;;;;;;;0.40;0.40;;;;;;;7.29;100.00;98858.69;5107435;28;20625;-59
2021/12/05 03:28:31;;;;;;;0.87;0.87;;;;;;;7.25;100.00;98854.50;5106952;28;20213;-58
2021/12/05 03:30:58;;;;;;;2.43;2.20;;;;;;;7.15;100.00;98851.31;5107228;28;20281;-56
2021/12/05 03:33:25;;;;;;;1.40;1.30;;;;;;;7.14;100.00;98862.50;5107119;28;20199;-57
2021/12/05 03:35:52;;;;;;;3.27;3.03;;;;;;;7.20;100.00;98852.03;5106969;28;20197;-58
2021/12/05 03:38:20;;;;;;;1.10;1.00;;;;;;;7.27;100.00;98848.41;5106698;28;20209;-57
2021/12/05 03:40:48;;;;;;;2.10;1.17;;;;;;;7.24;100.00;98838.16;5106774;28;20309;-58
2021/12/05 03:43:17;;;;;;;1.73;1.63;;;;;;;7.51;100.00;98862.41;5106693;28;20206;-59
2021/12/05 03:45:53;;;;;;;1.30;1.20;;;;;;;7.54;100.00;98854.59;5106806;28;20286;-57
2021/12/05 03:48:21;;;;;;;1.73;0.97;;;;;;;7.64;100.00;98853.44;5106609;28;20229;-57
2021/12/05 03:50:49;;;;;;;0.50;0.50;;;;;;;7.69;100.00;98860.19;5100305;28;20705;-57
2021/12/05 03:53:18;;;;;;;0.70;0.70;;;;;;;7.80;100.00;98864.19;5093043;28;20751;-58
2021/12/05 03:55:49;;;;;;;0.47;0.47;;;;;;;7.70;100.00;98864.47;5093222;28;20278;-58
2021/12/05 03:58:17;;;;;;;1.43;1.33;;;;;;;7.72;100.00;98871.28;5092822;28;20226;-56
2021/12/05 04:00:48;;;;;;;0.30;0.30;;;;;;;7.77;100.00;98874.63;5092930;28;20233;-56
2021/12/05 04:03:18;;;;;;;1.40;1.10;;;;;;;7.82;100.00;98872.72;5092811;28;20286;-57
2021/12/05 04:05:45;;;;;;;2.97;1.67;;;;;;;7.71;100.00;98855.84;5092633;28;20653;-56
2021/12/05 04:08:15;;;;;;;1.67;1.53;;;;;;;7.79;100.00;98879.75;5092595;28;20548;-60
2021/12/05 04:10:44;;;;;;;1.77;1.63;;;;;;;7.71;100.00;98889.41;5092858;28;20664;-58
2021/12/05 04:13:12;;;;;;;3.33;1.43;;;;;;;7.77;100.00;98895.28;5092621;28;20197;-58
2021/12/05 04:15:39;;;;;;;0.40;0.40;;;;;;;7.85;100.00;98892.47;5092699;28;20202;-59
2021/12/05 04:18:08;;;;;;;1.63;1.53;;;;;;;7.94;100.00;98898.22;5092760;28;20286;-59
2021/12/05 04:20:35;;;;;;;1.60;1.00;;;;;;;7.92;100.00;98897.41;5092221;28;20226;-58
2021/12/05 04:23:02;;;;;;;1.03;0.67;;;;;;;7.94;100.00;98903.41;5092476;28;20286;-59
2021/12/05 04:25:29;;;;;;;0.57;0.57;;;;;;;7.78;100.00;98886.66;5092547;28;20205;-60
2021/12/05 04:27:57;;;;;;;10.37;2.00;;;;;;;7.94;100.00;98910.31;5092403;28;20202;-56
2021/12/05 04:30:26;;;;;;;9.37;3.30;;;;;;;7.87;100.00;98922.56;5092363;28;20226;-58
2021/12/05 04:32:54;;;;;;;0.80;0.77;;;;;;;7.75;100.00;98917.72;5092144;28;20195;-56
2021/12/05 04:35:22;;;;;;;9.20;2.90;;;;;;;7.67;100.00;98914.50;5092155;28;20202;-58
2021/12/05 04:37:49;;;;;;;1.00;0.87;;;;;;;7.70;100.00;98900.63;5092101;28;20209;-58
2021/12/05 04:40:16;;;;;;;0.50;0.40;;;;;;;7.71;100.00;98899.75;5091891;28;20235;-55
2021/12/05 04:42:44;;;;;;;0.60;0.57;;;;;;;7.62;100.00;98882.78;5091498;28;20295;-56
2021/12/05 04:45:15;;;;;;;6.13;2.37;;;;;;;7.58;100.00;98906.97;5091477;28;20197;-57
2021/12/05 04:47:43;;;;;;;1.03;1.03;;;;;;;7.40;100.00;98895.41;5091827;28;20199;-56
2021/12/05 04:50:11;;;;;;;0.63;0.63;;;;;;;7.23;100.00;98875.16;5092402;28;20239;-56
2021/12/05 04:52:40;;;;;;;18.63;3.67;;;;;;;7.49;100.00;98904.63;5092036;28;20233;-56
2021/12/05 04:55:08;;;;;;;1.33;0.87;;;;;;;7.61;100.00;98904.31;5091786;28;20203;-57
2021/12/05 04:57:35;;;;;;;1.27;0.93;;;;;;;7.64;100.00;98905.09;5091816;28;20647;-56
2021/12/05 05:00:04;;;;;;;1.20;1.20;;;;;;;7.61;100.00;98914.66;5091672;28;20219;-56
2021/12/05 05:02:31;;;;;;;0.80;0.80;;;;;;;7.57;100.00;98913.03;5090819;28;20675;-57
2021/12/05 05:04:58;;;;;;;3.43;1.60;;;;;;;7.50;100.00;98919.25;5090466;28;20201;-57
2021/12/05 05:07:28;;;;;;;0.50;0.50;;;;;;;7.39;100.00;98918.69;5071067;28;20665;-57
2021/12/05 05:09:59;;;;;;;2.47;2.27;;;;;;;7.37;100.00;98904.94;5070640;28;20230;-56
2021/12/05 05:12:26;;;;;;;2.23;1.90;;;;;;;7.56;100.00;98926.84;5070641;28;20223;-57
2021/12/05 05:14:55;;;;;;;1.33;1.30;;;;;;;7.68;100.00;98930.81;5070542;28;20350;-57
2021/12/05 05:17:23;;;;;;;1.23;1.23;;;;;;;7.70;100.00;98937.66;5078278;28;20215;-56
2021/12/05 05:19:53;;;;;;;1.60;1.50;;;;;;;7.68;100.00;98941.16;5090338;28;20789;-56
2021/12/05 05:22:30;;;;;;;1.10;1.10;;;;;;;7.74;100.00;98954.78;5090389;28;20218;-57
2021/12/05 05:27:59;;;;;;;3.77;1.00;;;;;;;7.90;100.00;98937.13;5089937;28;20661;-56
2021/12/05 05:30:42;;;;;;;1.97;1.53;;;;;;;8.03;100.00;98949.66;5089164;28;20230;-57
2021/12/05 05:46:59;;;;;;;4.93;1.93;;;;;;;8.00;100.00;98943.75;5090376;28;20225;-59
2021/12/05 05:49:35;;;;;;;4.63;1.70;;;;;;;7.99;100.00;98942.91;5090009;28;20222;-57
2021/12/05 05:52:02;;;;;;;0.43;0.43;;;;;;;7.92;100.00;98936.19;5089884;28;20233;-56
2021/12/05 05:54:29;;;;;;;1.10;0.97;;;;;;;7.91;100.00;98937.06;5089445;28;20674;-59
2021/12/05 05:57:05;;;;;;;2.83;2.03;;;;;;;7.84;100.00;98948.47;5090342;28;20276;-60
2021/12/05 05:59:39;;;;;;;3.13;2.67;;;;;;;7.75;100.00;98947.88;5088812;28;20230;-57
2021/12/05 06:04:47;;;;;;;0.63;0.63;;;;;;;7.62;100.00;98958.50;5089725;28;20222;-57
2021/12/05 06:07:15;;;;;;;5.30;2.07;;;;;;;7.50;100.00;98955.41;5089519;28;20597;-56
2021/12/05 06:09:42;;;;;;;1.20;1.07;;;;;;;7.62;100.00;98953.34;5090210;28;20714;-61
2021/12/05 06:12:11;;;;;;;9.87;2.60;;;;;;;7.57;100.00;98956.91;5090207;28;20233;-59
2021/12/05 06:14:38;;;;;;;1.50;1.40;;;;;;;7.33;100.00;98939.50;5089291;28;20664;-56
2021/12/05 06:17:05;;;;;;;2.77;1.60;;;;;;;7.49;100.00;98958.88;5088360;28;20215;-54
2021/12/05 06:19:32;;;;;;;0.50;0.50;;;;;;;7.62;100.00;98970.59;5088551;28;20221;-54
2021/12/05 06:21:59;;;;;;;4.00;1.40;;;;;;;7.55;100.00;98959.56;5087794;28;20261;-54
2021/12/05 06:24:27;;;;;;;1.13;1.13;;;;;;;7.78;100.00;98979.66;5088263;28;20227;-54
2021/12/05 06:26:54;;;;;;;1.27;1.17;;;;;;;7.86;100.00;98980.28;5087588;28;20298;-54
2021/12/05 06:29:23;;;;;;;2.00;1.90;;;;;;;7.98;100.00;98982.53;5087758;28;20304;-54
2021/12/05 06:32:04;;;;;;;5.27;3.00;;;;;;;7.87;100.00;98981.13;5087905;28;20215;-53
2021/12/05 06:37:43;;;;;;;1.63;1.57;;;;;;;7.68;100.00;98985.91;5049370;28;20252;-54
2021/12/05 06:40:34;;;;;;;1.23;1.23;;;;;;;7.81;100.00;98995.03;5085496;28;20231;-53
2021/12/05 06:43:05;;;;;;;1.57;1.47;;;;;;;7.89;100.00;98990.53;5085713;28;20276;-53
2021/12/05 06:48:18;;;;;;;5.40;2.07;;;;;;;7.88;100.00;98990.59;5086281;28;20616;-54
2021/12/05 06:50:45;;;;;;;0.50;0.50;;;;;;;7.94;100.00;98996.41;5086489;28;20223;-54
2021/12/05 06:53:12;;;;;;;2.37;1.93;;;;;;;8.01;100.00;98991.97;5086652;28;20323;-54
2021/12/05 06:55:39;;;;;;;1.87;1.77;;;;;;;8.00;100.00;99008.34;5084007;28;20222;-54
2021/12/05 06:58:05;;;;;;;3.20;2.10;;;;;;;8.09;100.00;99010.69;5081690;28;20226;-54
2021/12/05 07:00:34;;;;;;;1.70;1.40;;;;;;;8.14;100.00;99002.78;5080206;28;20706;-59
2021/12/05 07:03:01;;;;;;;1.63;1.53;;;;;;;8.23;100.00;98992.22;5083586;28;20289;-58
2021/12/05 07:05:42;;;;;;;1.67;1.60;;;;;;;8.21;100.00;98994.00;5083904;28;20252;-58
2021/12/05 07:08:10;;;;;;;1.30;1.30;;;;;;;8.16;100.00;99004.44;5085288;28;20218;-58
2021/12/05 07:10:46;;;;;;;3.77;1.83;;;;;;;7.92;100.00;99005.09;5088626;28;20253;-58
2021/12/05 07:16:04;;;;;;;2.10;1.93;;;;;;;7.92;100.00;99005.94;5087073;28;20222;-58
2021/12/05 07:21:24;;;;;;;2.90;2.67;;;;;;;8.05;100.00;98993.56;5088685;28;20223;-59
2021/12/05 07:23:58;;;;;;;6.53;4.07;;;;;;;8.14;100.00;98992.44;5089178;28;20222;-56
2021/12/05 07:26:32;;;;;;;1.10;0.93;;;;;;;8.18;100.00;98988.91;5090359;28;20226;-54
2021/12/05 07:42:42;;;;;;;3.07;2.70;;;;;;;8.03;100.00;98970.31;5089594;28;20632;-60
2021/12/05 07:45:15;;;;;;;2.70;2.53;;;;;;;8.28;100.00;98980.84;5092409;28;20654;-58
2021/12/05 07:54:36;;;;;;;50.97;20.33;;;;;;;11.66;100.00;98997.63;5086897;27;20568;-61
2021/12/05 07:57:15;;;;;;;44.77;20.50;;;;;;;11.54;100.00;98996.38;5086931;28;20287;-59
2021/12/05 07:59:56;;;;;;;40.57;17.80;;;;;;;11.36;100.00;98999.72;5092348;28;20710;-65
2021/12/05 08:16:14;;;;;;;41.37;18.50;;;;;;;9.07;100.00;98994.03;5044296;28;20715;-65
2021/12/05 08:18:41;;;;;;;44.97;20.10;;;;;;;8.96;100.00;98982.31;5043138;28;20220;-64
2021/12/05 08:21:09;;;;;;;46.43;20.20;;;;;;;8.98;100.00;98985.72;5043442;28;20311;-64
2021/12/05 08:23:37;;;;;;;49.27;22.00;;;;;;;8.98;100.00;98983.13;5044126;28;20720;-62
2021/12/05 08:26:12;;;;;;;53.87;23.50;;;;;;;8.53;100.00;98905.19;5044200;28;20217;-63
2021/12/05 08:31:36;;;;;;;50.10;22.80;;;;;;;8.89;100.00;98978.25;5055591;28;20231;-62
2021/12/05 08:34:19;;;;;;;52.13;23.37;;;;;;;8.93;100.00;98985.84;5055466;28;20235;-63
2021/12/05 08:37:18;;;;;;;43.27;21.53;;;;;;;8.87;100.00;98964.50;5056099;28;20273;-63
2021/12/05 08:42:57;;;;;;;57.33;22.73;;;;;;;9.14;100.00;98986.09;5005505;28;20706;-59
2021/12/05 09:27:08;;;;;;;55.13;25.37;;;;;;;10.44;100.00;98952.25;4989417;28;20221;-68
2021/12/05 10:02:51;;;;;;;71.77;32.70;;;;;;;11.16;100.00;98916.56;5031573;28;20227;-58
2021/12/05 10:08:35;;;;;;;72.83;34.43;;;;;;;10.91;100.00;98904.56;5031964;28;20220;-58
2021/12/05 10:11:15;;;;;;;70.03;33.33;;;;;;;10.58;100.00;98886.88;5031450;28;20613;-59
2021/12/05 10:13:56;;;;;;;76.90;36.47;;;;;;;10.60;100.00;98904.06;5031093;28;20237;-59
2021/12/05 10:16:44;;;;;;;68.87;33.63;;;;;;;10.49;100.00;98914.03;5030350;28;20228;-62
2021/12/05 10:36:01;;;;;;;54.23;28.50;;;;;;;10.29;100.00;98894.00;5031589;28;20251;-62
2021/12/05 10:38:37;;;;;;;46.57;24.67;;;;;;;10.40;100.00;98891.00;5031257;28;20579;-59
2021/12/05 10:41:17;;;;;;;47.37;26.50;;;;;;;10.30;100.00;98890.50;5031448;28;20590;-59
2021/12/05 10:43:46;;;;;;;50.27;27.17;;;;;;;10.54;100.00;98892.16;5031391;28;20204;-60
2021/12/05 10:46:16;;;;;;;41.53;23.27;;;;;;;10.63;100.00;98883.19;5031057;28;20208;-59
2021/12/05 10:48:46;;;;;;;38.53;22.07;;;;;;;10.68;100.00;98877.81;5030976;28;20257;-60
2021/12/05 10:51:16;;;;;;;56.77;28.97;;;;;;;10.67;100.00;98871.78;5031158;28;20197;-58
2021/12/05 10:53:45;;;;;;;49.53;23.67;;;;;;;10.59;100.00;98823.69;5031171;28;20674;-60
2021/12/05 10:56:19;;;;;;;33.40;20.73;;;;;;;10.82;100.00;98834.00;5030991;28;20288;-59
2021/12/05 10:58:51;;;;;;;39.67;21.60;;;;;;;10.73;100.00;98829.16;5030992;28;20548;-59
2021/12/05 11:01:25;;;;;;;39.77;22.90;;;;;;;10.76;100.00;98844.59;5030821;28;20268;-58
2021/12/05 11:03:55;;;;;;;37.83;22.00;;;;;;;10.82;100.00;98845.22;5030876;28;20199;-58
2021/12/05 11:06:25;;;;;;;39.23;22.60;;;;;;;10.85;100.00;98837.28;5031085;28;20697;-60
2021/12/05 11:08:57;;;;;;;37.17;23.03;;;;;;;10.84;100.00;98833.00;5030784;28;20200;-60
2021/12/05 11:11:24;;;;;;;40.23;23.27;;;;;;;10.88;100.00;98834.56;5030947;28;20201;-62
2021/12/05 11:13:51;;;;;;;38.50;22.57;;;;;;;10.83;100.00;98831.34;5030390;28;20328;-62
2021/12/05 11:16:37;;;;;;;38.80;21.83;;;;;;;10.93;100.00;98828.38;5030621;28;20291;-60
2021/12/05 11:19:11;;;;;;;40.23;22.33;;;;;;;10.93;100.00;98826.63;5030572;28;20212;-63
2021/12/05 11:21:46;;;;;;;41.77;23.20;;;;;;;10.82;100.00;98823.59;5030612;28;20197;-61
2021/12/05 11:24:19;;;;;;;42.77;25.07;;;;;;;10.71;100.00;98820.59;5030670;28;20713;-65
2021/12/05 11:27:04;;;;;;;43.00;24.93;;;;;;;10.70;100.00;98822.34;5030752;28;20201;-63
2021/12/05 11:29:42;;;;;;;45.37;24.60;;;;;;;10.78;100.00;98824.63;5030412;28;20197;-64
2021/12/05 11:32:13;;;;;;;47.27;25.43;;;;;;;10.79;100.00;98834.94;5030446;28;20606;-62
2021/12/05 11:34:40;;;;;;;44.60;25.47;;;;;;;10.67;100.00;98817.28;5027662;28;20217;-62
2021/12/05 11:37:07;;;;;;;46.40;28.77;;;;;;;10.84;100.00;98834.75;5029955;28;20205;-57
2021/12/05 11:39:36;;;;;;;52.90;28.43;;;;;;;10.70;100.00;98832.75;5030338;28;20682;-57
2021/12/05 11:42:12;;;;;;;50.07;28.83;;;;;;;10.68;100.00;98831.09;5030312;28;20209;-57
2021/12/05 11:44:40;;;;;;;52.87;29.43;;;;;;;10.71;100.00;98829.25;5029220;28;20196;-58
2021/12/05 11:47:13;;;;;;;63.73;32.10;;;;;;;10.78;100.00;98829.81;5029437;28;20672;-59
2021/12/05 11:49:40;;;;;;;57.63;30.03;;;;;;;10.81;100.00;98833.16;5029607;28;20665;-59
2021/12/05 11:52:08;;;;;;;41.77;23.50;;;;;;;10.74;100.00;98821.31;5029892;28;20224;-58
2021/12/05 11:54:40;;;;;;;42.03;24.33;;;;;;;10.79;100.00;98819.38;5027914;28;20247;-57
2021/12/05 11:57:11;;;;;;;41.33;25.00;;;;;;;10.84;100.00;98811.38;5030303;28;20199;-58
2021/12/05 11:59:40;;;;;;;70.40;36.63;;;;;;;10.85;100.00;98808.72;5032610;28;20197;-57
2021/12/05 12:02:10;;;;;;;60.20;30.47;;;;;;;10.92;100.00;98806.75;5030240;28;20300;-58
2021/12/05 12:04:48;;;;;;;38.07;24.20;;;;;;;10.98;100.00;98797.84;5030072;28;20201;-57
2021/12/05 12:07:24;;;;;;;53.57;27.37;;;;;;;11.01;100.00;98806.34;5030297;28;20219;-57
2021/12/05 12:09:55;;;;;;;49.37;30.00;;;;;;;11.11;100.00;98804.22;5030140;28;20197;-58
2021/12/05 12:12:22;;;;;;;38.37;24.10;;;;;;;11.09;100.00;98806.03;5029969;28;20237;-61
2021/12/05 12:14:50;;;;;;;40.67;22.67;;;;;;;11.10;100.00;98802.53;5029818;28;20221;-60
2021/12/05 12:17:17;;;;;;;33.67;21.67;;;;;;;11.03;100.00;98795.91;5030282;28;20265;-60
2021/12/05 12:19:46;;;;;;;35.67;21.33;;;;;;;11.02;100.00;98799.41;5026670;28;20201;-58
2021/12/05 12:22:16;;;;;;;36.57;22.53;;;;;;;10.87;100.00;98791.34;5029080;28;20228;-58
2021/12/05 12:24:43;;;;;;;38.03;22.60;;;;;;;10.91;100.00;98786.88;5027823;28;20208;-59
2021/12/05 12:27:13;;;;;;;36.17;20.87;;;;;;;10.94;100.00;98789.34;5029424;28;20197;-62
2021/12/05 12:29:41;;;;;;;41.00;23.57;;;;;;;11.08;100.00;98786.16;5025312;28;20666;-59
2021/12/05 12:32:15;;;;;;;40.23;23.07;;;;;;;11.15;100.00;98779.81;5035143;28;20201;-60
2021/12/05 12:34:43;;;;;;;38.60;22.83;;;;;;;11.07;100.00;98771.47;5036441;28;20217;-59
2021/12/05 12:37:13;;;;;;;30.47;19.47;;;;;;;11.05;100.00;98778.50;5027519;28;20197;-57
2021/12/05 12:39:43;;;;;;;30.73;19.43;;;;;;;10.86;100.00;98771.47;5030635;28;20589;-60
2021/12/05 12:42:19;;;;;;;31.93;20.20;;;;;;;10.77;100.00;98768.44;5032854;28;20631;-63
2021/12/05 12:45:10;;;;;;;37.30;22.13;;;;;;;10.84;100.00;98781.09;5033525;28;20197;-58
2021/12/05 12:47:40;;;;;;;27.40;17.40;;;;;;;10.86;100.00;98783.63;5026636;28;20204;-58
2021/12/05 12:50:36;;;;;;;29.60;18.30;;;;;;;10.83;100.00;98779.44;5032238;28;20207;-58
2021/12/05 12:53:20;;;;;;;28.70;17.53;;;;;;;10.77;100.00;98784.84;5014985;28;20193;-58
2021/12/05 12:55:54;;;;;;;31.83;18.53;;;;;;;10.75;100.00;98765.91;5022215;28;20252;-58
2021/12/05 12:58:42;;;;;;;28.00;18.33;;;;;;;10.80;100.00;98778.69;5033854;28;20516;-58
2021/12/05 13:01:35;;;;;;;29.53;18.53;;;;;;;10.85;100.00;98784.53;5033378;28;20205;-58
2021/12/05 13:04:32;;;;;;;27.80;18.60;;;;;;;10.78;100.00;98780.50;5032527;28;20247;-58
2021/12/05 13:10:03;;;;;;;28.80;18.17;;;;;;;10.56;100.00;98783.13;4985461;28;20244;-60
2021/12/05 13:12:52;;;;;;;31.43;18.40;;;;;;;10.50;100.00;98771.22;5032399;28;20957;-60
2021/12/05 13:15:29;;;;;;;28.47;19.10;;;;;;;10.61;100.00;98777.78;5029341;28;20581;-61
2021/12/05 13:17:58;;;;;;;29.37;18.77;;;;;;;10.61;100.00;98788.16;5032911;28;20221;-61
2021/12/05 13:20:29;;;;;;;28.87;18.93;;;;;;;10.52;100.00;98786.75;5032371;28;20224;-58
2021/12/05 13:23:02;;;;;;;29.80;19.17;;;;;;;10.47;100.00;98778.31;5032355;28;20235;-58
2021/12/05 13:25:31;;;;;;;32.13;19.17;;;;;;;10.48;100.00;98774.81;5032359;28;20611;-58
2021/12/05 13:28:18;;;;;;;29.73;20.10;;;;;;;10.46;100.00;98774.03;5032303;28;20304;-60
2021/12/05 13:30:47;;;;;;;30.73;19.13;;;;;;;10.43;100.00;98775.00;5032050;28;20302;-60
2021/12/05 13:33:18;;;;;;;28.73;19.53;;;;;;;10.24;100.00;98758.47;5032203;28;20420;-59
2021/12/05 13:35:46;;;;;;;32.37;21.20;;;;;;;9.96;100.00;98758.66;5031945;28;20235;-58
2021/12/05 13:38:32;;;;;;;39.67;23.10;;;;;;;9.93;100.00;98763.13;5031600;28;20225;-58
2021/12/05 13:41:11;;;;;;;37.40;24.20;;;;;;;9.98;100.00;98775.00;5032318;28;20725;-58
2021/12/05 13:43:40;;;;;;;41.70;27.23;;;;;;;9.99;100.00;98774.09;5031391;28;20674;-58
2021/12/05 13:46:34;;;;;;;46.00;28.57;;;;;;;10.01;100.00;98774.91;5031693;28;20224;-61
2021/12/05 13:49:22;;;;;;;42.10;28.13;;;;;;;10.02;100.00;98771.41;5021839;28;20814;-62
2021/12/05 13:51:49;;;;;;;51.17;30.67;;;;;;;10.09;100.00;98780.63;5031024;28;20221;-61
2021/12/05 13:54:24;;;;;;;48.43;28.97;;;;;;;10.04;100.00;98777.38;5031613;28;20232;-59
2021/12/05 13:57:07;;;;;;;43.23;27.40;;;;;;;9.96;100.00;98778.56;5031952;28;20224;-62
2021/12/05 13:59:36;;;;;;;45.27;24.67;;;;;;;9.95;100.00;98764.75;5031438;28;20727;-61
2021/12/05 14:02:05;;;;;;;46.60;26.50;;;;;;;9.92;100.00;98766.63;5031601;28;20253;-62
2021/12/05 14:04:34;;;;;;;39.53;23.53;;;;;;;9.87;100.00;98769.38;5031539;28;20228;-61
2021/12/05 14:07:04;;;;;;;36.57;24.17;;;;;;;9.90;100.00;98763.25;5035584;28;20519;-60
2021/12/05 14:09:33;;;;;;;39.53;24.93;;;;;;;9.86;100.00;98772.03;5039855;28;20217;-60
2021/12/05 14:12:24;;;;;;;50.13;27.73;;;;;;;9.77;100.00;98750.75;5032287;28;20315;-58
2021/12/05 14:14:52;;;;;;;45.07;25.70;;;;;;;9.88;100.00;98780.59;5029940;28;20715;-58
2021/12/05 14:17:24;;;;;;;49.00;26.80;;;;;;;9.81;100.00;98764.44;5030826;28;20807;-58
2021/12/05 14:19:52;;;;;;;46.50;26.97;;;;;;;9.90;100.00;98776.22;5039362;28;20220;-59
2021/12/05 14:22:22;;;;;;;49.93;30.20;;;;;;;9.84;100.00;98772.09;5042802;28;20622;-58
2021/12/05 14:24:52;;;;;;;49.27;29.17;;;;;;;9.73;100.00;98771.66;5045088;28;20231;-59
2021/12/05 14:27:21;;;;;;;46.83;28.27;;;;;;;9.77;100.00;98773.22;5034599;28;20221;-61
2021/12/05 14:29:50;;;;;;;52.77;29.40;;;;;;;9.67;100.00;98774.47;5031313;28;20684;-57
2021/12/05 14:32:22;;;;;;;45.37;27.90;;;;;;;9.70;100.00;98761.41;5031668;28;20331;-58
2021/12/05 14:34:51;;;;;;;46.13;27.90;;;;;;;9.71;100.00;98774.28;5034619;28;20228;-59
2021/12/05 14:37:21;;;;;;;47.23;27.30;;;;;;;9.65;100.00;98771.94;5027899;28;20217;-58
2021/12/05 14:39:50;;;;;;;42.83;25.67;;;;;;;9.57;100.00;98776.56;5030385;28;20217;-58
2021/12/05 14:42:20;;;;;;;41.83;26.80;;;;;;;9.43;100.00;98758.09;5026915;28;20229;-58
2021/12/05 14:44:49;;;;;;;50.10;28.23;;;;;;;9.62;100.00;98773.78;5030035;28;20219;-58
2021/12/05 14:47:20;;;;;;;54.23;30.27;;;;;;;9.53;100.00;98776.72;5030183;28;20237;-58
2021/12/05 14:49:52;;;;;;;53.57;29.83;;;;;;;9.43;100.00;98777.06;5029893;28;20549;-58
2021/12/05 14:52:21;;;;;;;54.07;31.13;;;;;;;9.44;100.00;98780.50;5029949;28;20722;-60
2021/12/05 14:54:50;;;;;;;51.50;30.67;;;;;;;9.44;100.00;98783.94;5030166;28;20225;-61
2021/12/05 14:57:20;;;;;;;48.90;30.63;;;;;;;9.42;100.00;98774.53;5029552;28;20233;-62
2021/12/05 14:59:50;;;;;;;57.10;34.07;;;;;;;9.40;100.00;98786.66;5030021;28;20240;-61
2021/12/05 15:02:18;;;;;;;58.20;36.57;;;;;;;9.46;100.00;98784.72;5029067;28;21089;-61
2021/12/05 15:04:49;;;;;;;70.23;41.07;;;;;;;9.44;100.00;98791.69;5029795;28;20217;-61
2021/12/05 15:07:20;;;;;;;77.33;43.47;;;;;;;9.53;100.00;98790.53;5030039;28;20316;-60
2021/12/05 15:09:49;;;;;;;68.20;40.27;;;;;;;9.57;100.00;98797.28;5033279;28;20620;-62
2021/12/05 15:12:20;;;;;;;65.37;42.43;;;;;;;9.63;100.00;98803.97;5039822;28;20243;-60
2021/12/05 15:14:49;;;;;;;72.47;42.60;;;;;;;9.62;100.00;98800.53;5039669;28;20290;-60
2021/12/05 15:17:18;;;;;;;76.47;43.17;;;;;;;9.63;100.00;98802.22;5035546;28;20238;-59
2021/12/05 15:19:48;;;;;;;70.37;44.10;;;;;;;9.64;100.00;98803.09;5031026;28;20244;-59
2021/12/05 15:22:16;;;;;;;82.50;48.20;;;;;;;9.57;100.00;98812.00;5035821;28;20221;-58
2021/12/05 15:24:53;;;;;;;78.97;45.67;;;;;;;9.56;100.00;98805.13;5030762;28;20247;-58
2021/12/05 15:27:24;;;;;;;86.10;48.63;;;;;;;9.54;100.00;98807.75;5040971;28;20220;-58
2021/12/05 15:29:53;;;;;;;90.17;50.47;;;;;;;9.45;100.00;98802.91;5034626;28;20225;-58
2021/12/05 15:32:22;;;;;;;96.27;56.93;;;;;;;9.51;100.00;98812.19;5035718;28;20227;-58
2021/12/05 15:34:52;;;;;;;111.17;65.50;;;;;;;9.28;100.00;98800.91;5038242;28;20605;-62
2021/12/05 15:37:22;;;;;;;110.17;62.97;;;;;;;9.42;100.00;98813.38;5039273;28;20223;-58
2021/12/05 15:39:53;;;;;;;100.00;59.47;;;;;;;9.50;100.00;98815.69;5038305;28;20228;-60
2021/12/05 15:42:23;;;;;;;90.60;53.60;;;;;;;9.55;100.00;98808.59;5040766;28;20220;-62
2021/12/05 15:44:52;;;;;;;91.43;50.77;;;;;;;9.55;100.00;98804.25;5040195;28;20274;-60
2021/12/05 15:47:22;;;;;;;77.23;47.77;;;;;;;9.59;100.00;98812.78;5037625;28;20224;-60
2021/12/05 15:50:06;;;;;;;82.43;43.60;;;;;;;9.54;100.00;98814.69;5029917;28;20223;-60
2021/12/05 15:52:37;;;;;;;65.90;40.53;;;;;;;9.56;100.00;98820.66;5029377;28;20225;-61
2021/12/05 15:55:09;;;;;;;63.13;36.70;;;;;;;9.59;100.00;98813.63;5028865;28;20696;-61
2021/12/05 15:57:39;;;;;;;55.97;35.33;;;;;;;9.53;100.00;98811.25;5027032;28;20610;-57
2021/12/05 16:00:14;;;;;;;62.80;35.77;;;;;;;9.46;100.00;98814.97;5028966;28;20687;-57
2021/12/05 16:02:46;;;;;;;59.97;34.80;;;;;;;9.39;100.00;98808.28;5029002;28;20234;-58
2021/12/05 16:05:16;;;;;;;60.90;36.13;;;;;;;9.41;100.00;98817.69;5029052;28;20275;-58
2021/12/05 16:07:44;;;;;;;55.80;34.47;;;;;;;9.39;100.00;98819.50;5028535;28;20620;-56
2021/12/05 16:10:17;;;;;;;60.67;36.27;;;;;;;9.40;100.00;98826.38;5029076;28;20597;-57
2021/12/05 16:12:46;;;;;;;62.23;36.80;;;;;;;9.36;100.00;98831.72;5027761;28;20391;-57
2021/12/05 16:15:14;;;;;;;67.23;38.90;;;;;;;9.35;100.00;98823.09;5030736;28;20224;-57
2021/12/05 16:17:42;;;;;;;62.60;40.33;;;;;;;9.40;100.00;98830.69;5032843;28;20228;-58